Time;durP1;ratioP1;P1;durP2;ratioP2;P2;SDS_P1;SDS_P2;PMS_P1;PMS_P2;Temp;Humidity;BMP_temperature;BMP_pressure;BME280_temperature;BME280_humidity;BME280_pressure;Samples;Min_cycle;Max_cycle;Signal;HPM_P1;HPM_P2
2023/05/02 00:01:25;;;;;;;34.05;19.55;;;;;;;10.68;100.00;101817.66;4839884;29;20147;-78
2023/05/02 00:03:50;;;;;;;31.90;18.42;;;;;;;10.71;100.00;101832.75;4840615;29;20034;-79
2023/05/02 00:06:16;;;;;;;34.92;20.23;;;;;;;10.74;100.00;101833.41;4839165;29;20033;-79
2023/05/02 00:08:41;;;;;;;33.92;19.02;;;;;;;10.76;100.00;101836.91;4839137;29;20110;-79
2023/05/02 00:11:06;;;;;;;35.45;19.67;;;;;;;10.77;100.00;101838.59;4839228;29;20041;-79
2023/05/02 00:13:32;;;;;;;35.20;19.17;;;;;;;10.81;100.00;101839.31;4840299;29;20034;-79
2023/05/02 00:15:57;;;;;;;35.25;18.77;;;;;;;10.82;100.00;101841.03;4840281;29;20044;-79
2023/05/02 00:18:23;;;;;;;33.75;19.38;;;;;;;10.84;100.00;101849.88;4840152;29;20061;-79
2023/05/02 00:20:49;;;;;;;33.22;19.90;;;;;;;10.86;100.00;101849.78;4839109;29;20038;-79
2023/05/02 00:23:14;;;;;;;35.92;19.55;;;;;;;10.88;100.00;101847.88;4840304;29;20054;-79
2023/05/02 00:25:44;;;;;;;34.00;18.17;;;;;;;10.90;100.00;101854.03;4838895;29;20076;-78
2023/05/02 00:28:10;;;;;;;32.53;18.85;;;;;;;10.90;100.00;101856.72;4840107;29;20038;-79
2023/05/02 00:30:36;;;;;;;36.92;19.35;;;;;;;10.90;100.00;101854.91;4840195;29;20769;-79
2023/05/02 00:33:01;;;;;;;32.08;18.30;;;;;;;10.94;100.00;101858.28;4840055;29;20037;-79
2023/05/02 00:35:26;;;;;;;34.08;19.13;;;;;;;10.96;100.00;101861.75;4838876;29;20026;-79
2023/05/02 00:37:51;;;;;;;35.88;20.15;;;;;;;10.93;100.00;101862.78;4840227;29;20427;-79
2023/05/02 00:40:17;;;;;;;34.67;18.63;;;;;;;10.95;100.00;101863.59;4840261;29;20053;-79
2023/05/02 00:42:42;;;;;;;32.92;18.65;;;;;;;10.95;100.00;101862.69;4838860;29;20166;-79
2023/05/02 00:45:08;;;;;;;34.70;18.30;;;;;;;10.92;100.00;101863.75;4840057;29;20382;-79
2023/05/02 00:47:34;;;;;;;33.03;16.25;;;;;;;10.91;100.00;101863.81;4838571;29;20029;-79
2023/05/02 00:50:00;;;;;;;34.63;17.73;;;;;;;10.92;100.00;101860.19;4841492;29;20037;-78
2023/05/02 00:52:25;;;;;;;33.30;17.38;;;;;;;10.90;99.92;101870.19;4843757;29;20068;-79
2023/05/02 00:54:51;;;;;;;33.90;15.48;;;;;;;10.90;100.00;101865.66;4843641;29;20512;-79
2023/05/02 00:57:16;;;;;;;31.73;15.98;;;;;;;10.88;99.79;101862.19;4843332;29;20037;-78
2023/05/02 00:59:42;;;;;;;29.48;15.68;;;;;;;10.90;100.00;101873.72;4842062;29;20057;-79
2023/05/02 01:02:26;;;;;;;29.58;14.65;;;;;;;10.92;99.28;101865.56;4843337;29;20141;-79
2023/05/02 01:05:15;;;;;;;27.90;13.88;;;;;;;10.90;99.31;101862.13;4843499;29;20034;-79
2023/05/02 01:08:13;;;;;;;29.77;14.57;;;;;;;10.91;99.04;101867.41;4842257;29;20034;-79
2023/05/02 01:11:05;;;;;;;28.38;14.07;;;;;;;10.88;99.15;101872.97;4831566;29;20034;-79
2023/05/02 01:13:36;;;;;;;33.22;14.30;;;;;;;10.80;98.92;101872.53;4825003;29;20065;-79
2023/05/02 01:16:03;;;;;;;27.80;13.45;;;;;;;10.76;98.87;101870.97;4840092;29;20041;-79
2023/05/02 01:18:32;;;;;;;25.67;11.38;;;;;;;10.65;97.21;101866.22;4843057;29;20118;-79
2023/05/02 01:21:02;;;;;;;24.67;11.40;;;;;;;10.60;98.07;101870.97;4843363;29;20071;-79
2023/05/02 01:23:59;;;;;;;24.52;10.90;;;;;;;10.61;98.19;101867.34;4841825;29;20078;-79
2023/05/02 01:26:44;;;;;;;24.60;10.50;;;;;;;10.59;98.16;101866.56;4842973;29;20441;-79
2023/05/02 01:29:13;;;;;;;24.83;9.95;;;;;;;10.57;98.44;101869.34;4843118;29;20097;-79
2023/05/02 01:31:40;;;;;;;26.70;12.32;;;;;;;10.54;97.73;101874.91;4841343;29;20510;-79
2023/05/02 01:34:09;;;;;;;27.02;10.90;;;;;;;10.49;98.25;101868.91;4842994;29;20026;-79
2023/05/02 01:36:36;;;;;;;25.67;10.57;;;;;;;10.45;98.66;101867.34;4842988;29;20040;-79
2023/05/02 01:39:03;;;;;;;22.75;10.98;;;;;;;10.44;99.13;101866.50;4841697;29;20474;-79
2023/05/02 01:41:30;;;;;;;21.77;10.00;;;;;;;10.40;99.29;101864.91;4842640;29;20022;-79
2023/05/02 01:43:57;;;;;;;24.83;9.85;;;;;;;10.39;99.21;101870.38;4841587;29;20026;-79
2023/05/02 01:46:26;;;;;;;25.35;12.23;;;;;;;10.34;99.50;101873.34;4842860;29;20036;-79
2023/05/02 01:48:54;;;;;;;28.02;10.18;;;;;;;10.32;99.62;101877.88;4834018;29;20032;-79
2023/05/02 01:51:20;;;;;;;23.52;10.07;;;;;;;10.31;100.00;101874.34;4842670;29;20128;-79
2023/05/02 01:53:49;;;;;;;22.42;9.65;;;;;;;10.31;100.00;101879.72;4842599;29;20038;-79
2023/05/02 01:56:17;;;;;;;24.60;10.60;;;;;;;10.33;100.00;101885.00;4842859;29;20033;-79
2023/05/02 01:58:46;;;;;;;23.03;9.73;;;;;;;10.34;100.00;101884.09;4842221;29;20411;-79
2023/05/02 02:01:13;;;;;;;23.45;9.93;;;;;;;10.35;100.00;101888.47;4842001;29;20034;-79
2023/05/02 02:03:39;;;;;;;24.60;11.55;;;;;;;10.30;100.00;101891.41;4842465;29;20038;-79
2023/05/02 02:06:06;;;;;;;24.52;9.57;;;;;;;10.30;100.00;101887.84;4841164;29;20037;-78
2023/05/02 02:08:31;;;;;;;24.23;11.05;;;;;;;10.32;100.00;101902.06;4842426;29;20407;-79
2023/05/02 02:11:03;;;;;;;24.95;11.88;;;;;;;10.32;100.00;101910.13;4840880;29;20070;-79
2023/05/02 02:13:39;;;;;;;25.25;11.25;;;;;;;10.35;100.00;101901.91;4841029;29;20034;-79
2023/05/02 02:16:08;;;;;;;29.35;12.43;;;;;;;10.36;100.00;101898.28;4842397;29;20443;-79
2023/05/02 02:18:37;;;;;;;28.38;12.40;;;;;;;10.38;100.00;101915.22;4842612;29;20041;-78
2023/05/02 02:21:06;;;;;;;26.13;11.98;;;;;;;10.43;100.00;101909.56;4842182;29;20107;-79
2023/05/02 02:23:33;;;;;;;29.27;13.20;;;;;;;10.43;100.00;101914.94;4840987;29;20034;-79
2023/05/02 02:26:01;;;;;;;26.30;11.93;;;;;;;10.42;100.00;101923.97;4840741;29;20034;-79
2023/05/02 02:28:26;;;;;;;25.95;12.85;;;;;;;10.36;100.00;101919.78;4840835;29;20078;-79
2023/05/02 02:30:52;;;;;;;24.75;11.40;;;;;;;10.37;100.00;101916.16;4840779;29;20029;-79
2023/05/02 02:33:19;;;;;;;27.02;11.82;;;;;;;10.36;100.00;101914.41;4840382;29;20082;-79
2023/05/02 02:36:04;;;;;;;27.92;13.32;;;;;;;10.36;100.00;101917.09;4840751;29;20034;-79
2023/05/02 02:38:39;;;;;;;26.27;11.93;;;;;;;10.38;100.00;101920.59;4856068;29;20038;-78
2023/05/02 02:41:15;;;;;;;26.70;12.80;;;;;;;10.42;100.00;101919.44;4841919;29;20101;-79
2023/05/02 02:44:03;;;;;;;27.23;12.93;;;;;;;10.44;100.00;101925.63;4841724;29;20038;-78
2023/05/02 02:46:51;;;;;;;25.92;12.55;;;;;;;10.43;100.00;101923.88;4841876;29;20105;-79
2023/05/02 02:49:40;;;;;;;25.52;11.98;;;;;;;10.41;100.00;101930.28;4841861;29;20026;-79
2023/05/02 02:52:11;;;;;;;;;;;;;;;10.49;100.00;101931.59;4836190;29;20148;-79
2023/05/02 02:54:44;;;;;;;28.83;13.18;;;;;;;10.44;100.00;101927.41;4841622;29;19923;-79
2023/05/02 02:57:24;;;;;;;25.70;12.73;;;;;;;10.42;100.00;101932.88;4840106;29;20124;-79
2023/05/02 03:00:14;;;;;;;27.10;12.80;;;;;;;10.46;100.00;101936.28;4841600;29;20045;-79
2023/05/02 03:02:41;;;;;;;;;;;;;;;10.49;100.00;101939.66;4839963;29;20141;-79
2023/05/02 03:05:09;;;;;;;26.83;12.35;;;;;;;10.40;100.00;101942.84;4840163;29;19946;-79
2023/05/02 03:07:35;;;;;;;26.08;11.45;;;;;;;10.39;100.00;101951.84;4840177;29;20105;-79
2023/05/02 03:10:03;;;;;;;22.42;10.50;;;;;;;10.42;100.00;101946.31;4839953;29;20034;-79
2023/05/02 03:12:28;;;;;;;24.63;10.68;;;;;;;10.44;100.00;101944.44;4840987;29;20030;-79
2023/05/02 03:15:08;;;;;;;22.63;9.93;;;;;;;10.43;100.00;101955.25;4841311;29;20041;-79
2023/05/02 03:17:33;;;;;;;24.75;11.38;;;;;;;10.42;100.00;101959.75;4839832;29;20034;-79
2023/05/02 03:19:59;;;;;;;22.58;9.45;;;;;;;10.42;100.00;101966.97;4841253;29;20048;-79
2023/05/02 03:22:24;;;;;;;24.45;10.57;;;;;;;10.41;100.00;101970.59;4839715;29;20025;-79
2023/05/02 03:24:49;;;;;;;21.95;10.05;;;;;;;10.42;100.00;101975.88;4841077;29;20576;-79
2023/05/02 03:27:14;;;;;;;25.25;11.27;;;;;;;10.41;100.00;101968.78;4840991;29;20137;-78
2023/05/02 03:29:40;;;;;;;22.25;10.88;;;;;;;10.44;100.00;101976.69;4839641;29;20398;-79
2023/05/02 03:32:05;;;;;;;24.73;9.65;;;;;;;10.44;100.00;101971.31;4836297;29;20030;-79
2023/05/02 03:34:31;;;;;;;23.98;9.75;;;;;;;10.44;100.00;101975.78;4840757;29;20030;-80
2023/05/02 03:36:56;;;;;;;24.58;11.13;;;;;;;10.41;100.00;101975.97;4840946;29;20445;-79
2023/05/02 03:39:21;;;;;;;24.67;10.55;;;;;;;10.42;100.00;101966.97;4839684;29;20029;-79
2023/05/02 03:41:46;;;;;;;25.48;11.43;;;;;;;10.38;100.00;101970.75;4839410;29;20112;-79
2023/05/02 03:44:12;;;;;;;23.55;11.02;;;;;;;10.38;100.00;101978.81;4840815;29;20032;-79
2023/05/02 03:46:37;;;;;;;20.48;9.57;;;;;;;10.39;100.00;101967.13;4839362;29;20034;-79
2023/05/02 03:49:03;;;;;;;25.23;11.55;;;;;;;10.41;100.00;101975.97;4839447;29;20471;-79
2023/05/02 03:51:28;;;;;;;23.75;11.02;;;;;;;10.41;100.00;101984.03;4840527;29;20033;-80
2023/05/02 03:53:53;;;;;;;22.25;11.32;;;;;;;10.42;100.00;101983.94;4840689;29;20030;-79
2023/05/02 03:56:19;;;;;;;22.60;10.90;;;;;;;10.44;100.00;101982.06;4840393;29;20037;-79
2023/05/02 03:58:45;;;;;;;24.23;11.10;;;;;;;10.44;100.00;101991.91;4839140;29;20397;-79
2023/05/02 04:01:14;;;;;;;25.73;10.23;;;;;;;10.44;100.00;101995.50;4840372;29;20062;-79
2023/05/02 04:03:39;;;;;;;24.85;10.15;;;;;;;10.44;100.00;102008.94;4840421;29;20094;-79
2023/05/02 04:06:05;;;;;;;22.75;8.20;;;;;;;10.44;100.00;102005.34;4840602;29;20498;-79
2023/05/02 04:08:31;;;;;;;30.55;8.32;;;;;;;10.41;100.00;102008.22;4840654;29;20037;-79
2023/05/02 04:10:56;;;;;;;19.35;7.55;;;;;;;10.35;100.00;102009.41;4840377;29;20038;-79
2023/05/02 04:13:21;;;;;;;23.10;7.38;;;;;;;10.35;100.00;102009.41;4840385;29;20041;-79
2023/05/02 04:15:47;;;;;;;18.73;6.78;;;;;;;10.30;99.92;102012.31;4840830;29;20383;-78
2023/05/02 04:18:12;;;;;;;21.05;6.97;;;;;;;10.29;99.57;102020.47;4840305;29;20068;-79
2023/05/02 04:20:37;;;;;;;18.00;6.35;;;;;;;10.25;99.39;102017.09;4839200;29;20026;-79
2023/05/02 04:23:03;;;;;;;20.15;6.10;;;;;;;10.25;99.14;102024.25;4840386;29;20343;-78
2023/05/02 04:25:28;;;;;;;21.33;6.78;;;;;;;10.24;99.02;102026.09;4844218;29;20038;-79
2023/05/02 04:27:53;;;;;;;20.88;7.10;;;;;;;10.25;98.26;102040.38;4847816;29;20509;-79
2023/05/02 04:30:19;;;;;;;24.35;7.05;;;;;;;10.21;97.99;102036.13;4841781;29;20505;-78
2023/05/02 04:32:44;;;;;;;20.90;6.90;;;;;;;10.18;98.05;102041.69;4841478;29;20554;-79
2023/05/02 04:35:09;;;;;;;19.00;6.68;;;;;;;10.19;98.35;102051.44;4841771;29;20050;-79
2023/05/02 04:37:35;;;;;;;22.63;7.32;;;;;;;10.16;98.31;102052.47;4844060;29;20045;-78
2023/05/02 04:40:00;;;;;;;20.40;6.93;;;;;;;10.18;98.60;102060.47;4844156;29;20026;-79
2023/05/02 04:42:26;;;;;;;16.50;5.65;;;;;;;10.15;97.12;102057.00;4843772;29;20518;-79
2023/05/02 04:44:51;;;;;;;16.50;4.97;;;;;;;10.11;95.96;102068.84;4843897;29;20183;-79
2023/05/02 04:47:17;;;;;;;16.08;4.22;;;;;;;10.03;92.51;102068.38;4843881;29;20061;-79
2023/05/02 04:49:42;;;;;;;14.07;4.10;;;;;;;9.98;92.75;102073.09;4844269;29;20030;-79
2023/05/02 04:52:09;;;;;;;10.63;3.13;;;;;;;9.99;92.45;102082.91;4843770;29;20090;-79
2023/05/02 04:54:34;;;;;;;13.98;3.30;;;;;;;10.01;91.92;102085.50;4842405;29;20033;-79
2023/05/02 04:57:02;;;;;;;14.88;3.22;;;;;;;10.00;90.91;102089.13;4843349;29;20041;-79
2023/05/02 04:59:28;;;;;;;12.65;3.50;;;;;;;10.03;90.69;102091.66;4843772;29;20038;-79
2023/05/02 05:01:53;;;;;;;9.18;2.72;;;;;;;10.03;88.68;102094.34;4843051;29;20472;-79
2023/05/02 05:04:19;;;;;;;16.15;3.65;;;;;;;10.02;90.67;102098.88;4842393;29;20030;-79
2023/05/02 05:06:46;;;;;;;9.43;2.90;;;;;;;10.02;88.79;102098.88;4843567;29;20113;-79
2023/05/02 05:09:11;;;;;;;13.10;3.83;;;;;;;10.04;88.77;102109.53;4843534;29;20464;-79
2023/05/02 05:11:38;;;;;;;10.90;3.22;;;;;;;9.99;87.02;102111.59;4843459;29;20037;-79
2023/05/02 05:14:03;;;;;;;14.23;3.50;;;;;;;9.99;88.34;102117.81;4842144;29;20048;-79
2023/05/02 05:16:29;;;;;;;9.63;2.80;;;;;;;9.99;88.50;102120.50;4843230;29;20026;-79
2023/05/02 05:18:54;;;;;;;9.23;2.78;;;;;;;9.97;88.73;102122.38;4843285;29;20030;-79
2023/05/02 05:21:20;;;;;;;12.02;3.35;;;;;;;9.97;89.15;102133.13;4842075;29;20502;-79
2023/05/02 05:23:46;;;;;;;7.95;2.72;;;;;;;9.97;88.41;102128.66;4841932;29;20029;-79
2023/05/02 05:26:14;;;;;;;13.82;3.40;;;;;;;9.99;88.78;102136.63;4843243;29;20038;-79
2023/05/02 05:28:40;;;;;;;9.77;3.15;;;;;;;10.00;88.06;102143.75;4841730;29;20060;-79
2023/05/02 05:31:06;;;;;;;12.32;3.20;;;;;;;10.06;88.39;102137.16;4842966;29;20030;-79
2023/05/02 05:33:32;;;;;;;16.35;3.70;;;;;;;10.06;87.59;102138.06;4841555;29;20490;-79
2023/05/02 05:36:08;;;;;;;12.93;3.47;;;;;;;10.15;89.67;102142.97;4841238;29;20037;-79
2023/05/02 05:38:34;;;;;;;11.63;3.33;;;;;;;10.17;88.81;102139.34;4841642;29;20494;-79
2023/05/02 05:41:00;;;;;;;15.75;3.92;;;;;;;10.17;88.53;102144.69;4841569;29;20026;-79
2023/05/02 05:43:26;;;;;;;14.20;3.70;;;;;;;10.20;89.08;102147.22;4841487;29;20101;-79
2023/05/02 05:45:52;;;;;;;17.42;4.13;;;;;;;10.17;90.14;102147.38;4841726;29;20025;-78
2023/05/02 05:48:17;;;;;;;14.52;4.10;;;;;;;10.16;89.48;102143.81;4842683;29;20036;-79
2023/05/02 05:50:42;;;;;;;19.00;4.47;;;;;;;10.14;88.86;102153.78;4842780;29;20038;-79
2023/05/02 05:53:08;;;;;;;13.48;3.92;;;;;;;10.10;88.02;102153.09;4842752;29;20038;-79
2023/05/02 05:55:33;;;;;;;14.82;3.92;;;;;;;10.10;86.17;102154.88;4842641;29;20026;-79
2023/05/02 05:57:58;;;;;;;12.10;3.30;;;;;;;10.07;85.32;102155.94;4842448;29;20494;-79
2023/05/02 06:00:24;;;;;;;11.68;2.80;;;;;;;10.08;85.46;102154.97;4842658;29;20058;-79
2023/05/02 06:02:49;;;;;;;10.18;3.00;;;;;;;10.08;86.26;102160.31;4842178;29;20061;-79
2023/05/02 06:05:14;;;;;;;17.25;3.80;;;;;;;10.07;84.27;102166.66;4842632;29;20026;-79
2023/05/02 06:07:40;;;;;;;8.95;2.80;;;;;;;10.09;84.88;102163.91;4841261;29;20042;-79
2023/05/02 06:10:05;;;;;;;15.70;3.90;;;;;;;10.08;83.45;102179.13;4840939;29;20038;-80
2023/05/02 06:12:30;;;;;;;9.80;2.97;;;;;;;10.09;83.87;102178.19;4842323;29;20041;-79
2023/05/02 06:14:56;;;;;;;14.93;3.20;;;;;;;10.14;84.24;102184.19;4841044;29;20483;-79
2023/05/02 06:17:21;;;;;;;14.63;3.17;;;;;;;10.17;83.30;102182.31;4842263;29;20040;-79
2023/05/02 06:19:46;;;;;;;14.73;2.92;;;;;;;10.18;84.22;102187.59;4842457;29;20451;-79
2023/05/02 06:22:12;;;;;;;13.90;2.90;;;;;;;10.19;83.93;102196.53;4840847;29;20447;-79
2023/05/02 06:24:38;;;;;;;10.98;3.50;;;;;;;10.22;83.19;102191.00;4842214;29;20117;-79
2023/05/02 06:27:03;;;;;;;11.63;2.80;;;;;;;10.24;83.94;102197.19;4840595;29;20117;-80
2023/05/02 06:29:28;;;;;;;12.10;3.00;;;;;;;10.26;84.21;102197.97;4842140;29;20113;-80
2023/05/02 06:31:55;;;;;;;12.07;2.55;;;;;;;10.27;80.65;102205.09;4840346;29;20041;-79
2023/05/02 06:34:20;;;;;;;11.82;2.60;;;;;;;10.30;81.22;102211.16;4840693;29;20038;-80
2023/05/02 06:36:45;;;;;;;13.77;3.25;;;;;;;10.34;81.67;102216.41;4841976;29;20351;-80
2023/05/02 06:39:11;;;;;;;10.07;2.72;;;;;;;10.38;81.41;102218.91;4840535;29;20189;-79
2023/05/02 06:41:36;;;;;;;15.93;3.55;;;;;;;10.43;82.27;102224.03;4841660;29;20032;-79
2023/05/02 06:44:02;;;;;;;11.95;3.28;;;;;;;10.46;81.10;102221.19;4840525;29;20026;-79
2023/05/02 06:46:29;;;;;;;9.77;2.63;;;;;;;10.53;81.35;102235.16;4839380;29;20049;-80
2023/05/02 06:48:54;;;;;;;9.70;2.67;;;;;;;10.62;81.24;102240.94;4840388;29;20033;-80
2023/05/02 06:51:21;;;;;;;16.08;3.40;;;;;;;10.71;81.13;102241.44;4840317;29;20034;-80
2023/05/02 06:53:46;;;;;;;17.92;3.78;;;;;;;10.72;79.51;102238.66;4840179;29;20086;-79
2023/05/02 06:56:12;;;;;;;14.98;3.10;;;;;;;10.74;78.89;102250.19;4841563;29;20029;-79
2023/05/02 06:58:37;;;;;;;12.35;3.17;;;;;;;10.75;79.53;102251.09;4841332;29;20034;-79
2023/05/02 07:01:02;;;;;;;12.40;3.25;;;;;;;10.78;80.50;102243.72;4839974;29;20253;-79
2023/05/02 07:03:27;;;;;;;16.17;3.80;;;;;;;10.77;81.70;102258.09;4841314;29;20112;-79
2023/05/02 07:05:53;;;;;;;14.90;3.42;;;;;;;10.75;80.32;102256.47;4840060;29;20030;-79
2023/05/02 07:08:20;;;;;;;17.55;3.53;;;;;;;10.72;79.73;102264.66;4840009;29;20090;-79
2023/05/02 07:10:45;;;;;;;13.30;3.30;;;;;;;10.69;79.04;102268.41;4840003;29;20034;-79
2023/05/02 07:13:10;;;;;;;12.68;3.45;;;;;;;10.71;79.49;102266.50;4841252;29;20144;-80
2023/05/02 07:15:36;;;;;;;12.43;3.30;;;;;;;10.78;79.92;102272.44;4841295;29;20393;-78
2023/05/02 07:18:01;;;;;;;9.68;2.72;;;;;;;10.82;78.29;102271.31;4840954;29;20122;-80
2023/05/02 07:20:26;;;;;;;17.75;3.88;;;;;;;10.81;79.36;102281.22;4841089;29;20360;-80
2023/05/02 07:22:52;;;;;;;14.35;3.63;;;;;;;10.83;78.74;102282.03;4841139;29;20061;-80
2023/05/02 07:25:17;;;;;;;18.55;3.50;;;;;;;10.85;78.86;102287.31;4841061;29;20044;-80
2023/05/02 07:27:43;;;;;;;17.77;4.15;;;;;;;10.85;78.49;102292.69;4840988;29;20440;-79
2023/05/02 07:30:08;;;;;;;15.32;3.70;;;;;;;10.85;77.36;102292.69;4840992;29;20034;-80
2023/05/02 07:32:34;;;;;;;19.00;4.13;;;;;;;10.83;78.07;102295.47;4840685;29;20597;-79
2023/05/02 07:34:59;;;;;;;11.40;3.05;;;;;;;10.80;77.34;102297.44;4841047;29;20092;-80
2023/05/02 07:37:24;;;;;;;19.63;4.22;;;;;;;10.77;78.12;102300.28;4839579;29;20040;-80
2023/05/02 07:39:49;;;;;;;17.65;4.07;;;;;;;10.77;77.87;102297.59;4840867;29;20448;-79
2023/05/02 07:42:15;;;;;;;15.88;4.20;;;;;;;10.91;79.47;102303.13;4839368;29;20025;-79
2023/05/02 07:44:40;;;;;;;14.65;3.60;;;;;;;11.03;78.82;102301.63;4840920;29;20101;-80
2023/05/02 07:47:07;;;;;;;13.88;3.60;;;;;;;11.08;74.98;102313.00;4840590;29;20037;-80
2023/05/02 07:49:32;;;;;;;14.05;3.83;;;;;;;11.07;75.54;102307.69;4840719;29;20037;-80
2023/05/02 07:51:57;;;;;;;12.55;3.40;;;;;;;11.05;75.37;102312.31;4840687;29;20136;-80
2023/05/02 07:54:25;;;;;;;22.23;4.28;;;;;;;10.96;75.42;102313.66;4841085;29;20351;-80
2023/05/02 07:56:50;;;;;;;12.23;3.65;;;;;;;10.93;77.19;102313.81;4838939;29;20148;-79
2023/05/02 07:59:15;;;;;;;17.77;4.07;;;;;;;10.91;75.73;102313.00;4840378;29;20034;-80
2023/05/02 08:01:41;;;;;;;14.15;3.83;;;;;;;10.88;76.94;102315.84;4838582;29;20378;-79
2023/05/02 08:04:09;;;;;;;14.02;3.90;;;;;;;10.83;76.16;102317.00;4838510;29;20400;-80
2023/05/02 08:06:35;;;;;;;16.85;4.25;;;;;;;10.78;75.52;102319.03;4839890;29;20133;-80
2023/05/02 08:09:00;;;;;;;15.70;3.80;;;;;;;10.69;76.01;102327.56;4839593;29;20070;-78
2023/05/02 08:11:26;;;;;;;19.58;4.20;;;;;;;10.62;75.70;102342.25;4838198;29;20093;-79
2023/05/02 08:13:51;;;;;;;16.10;3.70;;;;;;;10.56;74.97;102345.25;4838442;29;20030;-79
2023/05/02 08:16:17;;;;;;;15.73;3.85;;;;;;;10.47;73.78;102352.81;4839775;29;20029;-79
2023/05/02 08:18:43;;;;;;;11.85;3.42;;;;;;;10.39;72.41;102344.25;4838523;29;20371;-79
2023/05/02 08:21:09;;;;;;;20.35;3.83;;;;;;;10.33;73.44;102347.19;4839666;29;20033;-79
2023/05/02 08:23:36;;;;;;;15.05;3.90;;;;;;;10.32;73.84;102350.81;4839491;29;20037;-79
2023/05/02 08:26:01;;;;;;;11.80;3.53;;;;;;;10.34;74.78;102356.16;4839571;29;20026;-79
2023/05/02 08:28:26;;;;;;;16.75;3.67;;;;;;;10.35;72.30;102364.13;4838212;29;20487;-79
2023/05/02 08:30:52;;;;;;;19.30;4.15;;;;;;;10.31;70.98;102367.91;4838130;29;20038;-79
2023/05/02 08:33:17;;;;;;;17.55;3.88;;;;;;;10.32;71.98;102369.63;4839156;29;20090;-79
2023/05/02 08:35:42;;;;;;;15.32;3.83;;;;;;;10.38;72.99;102373.88;4839656;29;20045;-79
2023/05/02 08:38:08;;;;;;;11.98;3.70;;;;;;;10.39;71.34;102372.94;4838065;29;20087;-79
2023/05/02 08:40:35;;;;;;;16.50;4.03;;;;;;;10.45;72.16;102375.34;4839508;29;20026;-79
2023/05/02 08:43:01;;;;;;;15.20;3.83;;;;;;;10.55;72.37;102373.94;4839320;29;20535;-79
2023/05/02 08:45:31;;;;;;;17.98;4.45;;;;;;;10.61;71.30;102381.69;4838114;29;20483;-79
2023/05/02 08:47:57;;;;;;;13.85;3.80;;;;;;;10.70;71.02;102385.75;4837966;29;20105;-79
2023/05/02 08:50:23;;;;;;;16.13;3.78;;;;;;;10.80;71.31;102378.97;4837795;29;20431;-78
2023/05/02 08:52:50;;;;;;;18.70;4.35;;;;;;;10.84;69.82;102385.94;4845613;29;20049;-79
2023/05/02 08:55:16;;;;;;;15.50;4.07;;;;;;;10.92;69.50;102390.06;4839341;29;20459;-79
2023/05/02 08:57:42;;;;;;;12.73;3.67;;;;;;;10.97;70.67;102393.41;4838811;29;20038;-79
2023/05/02 09:00:08;;;;;;;13.68;3.40;;;;;;;11.01;70.22;102390.50;4839263;29;20033;-79
2023/05/02 09:02:54;;;;;;;14.82;3.47;;;;;;;11.09;71.46;102392.78;4802366;29;1058738;-79
2023/05/02 09:05:23;;;;;;;14.52;3.20;;;;;;;11.16;70.89;102387.97;4833484;29;20037;-79
2023/05/02 09:07:50;;;;;;;12.35;3.47;;;;;;;11.22;70.52;102390.34;4838616;29;20038;-79
2023/05/02 09:10:16;;;;;;;13.35;3.95;;;;;;;11.25;69.07;102395.56;4841604;29;20057;-80
2023/05/02 09:12:42;;;;;;;12.07;3.45;;;;;;;11.28;67.53;102391.84;4843253;29;20030;-79
2023/05/02 09:15:12;;;;;;;17.58;3.97;;;;;;;11.39;71.13;102397.56;4843288;29;20069;-79
2023/05/02 09:17:42;;;;;;;19.90;4.50;;;;;;;11.54;66.29;102399.44;4841726;29;20113;-79
2023/05/02 09:20:10;;;;;;;10.13;3.17;;;;;;;11.72;66.46;102396.72;4843347;29;20026;-79
2023/05/02 09:22:36;;;;;;;14.52;3.78;;;;;;;11.80;63.93;102399.88;4843278;29;20033;-79
2023/05/02 09:25:01;;;;;;;14.60;3.55;;;;;;;11.78;62.47;102399.06;4843291;29;20041;-79
2023/05/02 09:27:27;;;;;;;14.05;3.65;;;;;;;11.81;63.05;102401.59;4841664;29;20441;-80
2023/05/02 09:30:17;;;;;;;14.32;3.70;;;;;;;11.92;66.47;102395.66;4841760;29;20129;-79
2023/05/02 09:32:49;;;;;;;15.13;3.75;;;;;;;11.96;64.60;102409.84;4832983;29;20090;-79
2023/05/02 09:35:22;;;;;;;13.10;3.47;;;;;;;11.87;63.20;102400.41;4841729;29;20121;-80
2023/05/02 09:37:48;;;;;;;12.35;3.53;;;;;;;11.84;64.36;102414.91;4841764;29;20106;-79
2023/05/02 09:40:13;;;;;;;11.80;3.25;;;;;;;11.79;63.94;102413.44;4841642;29;20025;-79
2023/05/02 09:42:39;;;;;;;15.35;3.22;;;;;;;11.73;62.38;102433.47;4841414;29;20088;-79
2023/05/02 09:45:04;;;;;;;15.05;3.75;;;;;;;11.71;64.28;102427.28;4842895;29;20044;-80
2023/05/02 09:47:30;;;;;;;17.80;3.83;;;;;;;11.68;62.61;102427.44;4842636;29;20048;-79
2023/05/02 09:49:55;;;;;;;13.15;3.35;;;;;;;11.71;63.85;102427.28;4841536;29;20520;-79
2023/05/02 09:52:20;;;;;;;18.52;4.00;;;;;;;11.74;61.79;102429.81;4842685;29;20075;-80
2023/05/02 09:54:46;;;;;;;10.27;2.90;;;;;;;11.84;62.71;102436.44;4841416;29;20041;-79
2023/05/02 09:57:12;;;;;;;14.73;3.83;;;;;;;11.96;65.87;102432.28;4842342;29;20055;-80
2023/05/02 09:59:41;;;;;;;13.07;3.58;;;;;;;11.95;62.38;102424.25;4842628;29;20435;-80
2023/05/02 10:02:09;;;;;;;10.67;3.33;;;;;;;11.96;64.38;102429.59;4840842;29;20045;-80
2023/05/02 10:04:35;;;;;;;17.13;4.03;;;;;;;11.91;62.35;102428.06;4842574;29;20339;-79
2023/05/02 10:07:02;;;;;;;14.70;4.55;;;;;;;12.00;64.37;102433.84;4842578;29;20069;-80
2023/05/02 10:09:28;;;;;;;13.52;3.85;;;;;;;12.17;64.65;102432.94;4842608;29;20029;-80
2023/05/02 10:11:55;;;;;;;12.50;3.63;;;;;;;12.35;61.38;102432.88;4840838;29;20038;-80
2023/05/02 10:14:22;;;;;;;15.77;3.80;;;;;;;12.48;61.33;102431.25;4841118;29;20190;-80
2023/05/02 10:17:01;;;;;;;13.55;3.72;;;;;;;12.62;62.76;102435.88;4842279;29;20065;-80
2023/05/02 10:19:32;;;;;;;15.10;4.03;;;;;;;12.60;59.05;102440.47;4834899;29;20038;-80
2023/05/02 10:21:58;;;;;;;19.75;4.13;;;;;;;12.57;60.62;102441.50;4842121;29;20117;-79
2023/05/02 10:24:24;;;;;;;16.02;4.35;;;;;;;12.49;60.51;102434.78;4840826;29;20036;-79
2023/05/02 10:26:51;;;;;;;11.63;3.20;;;;;;;12.47;63.49;102439.41;4842021;29;20093;-80
2023/05/02 10:29:16;;;;;;;22.85;5.20;;;;;;;12.47;59.61;102440.28;4840746;29;20439;-79
2023/05/02 10:31:44;;;;;;;12.75;4.15;;;;;;;12.45;60.50;102447.59;4841788;29;20034;-79
2023/05/02 10:34:10;;;;;;;12.30;4.10;;;;;;;12.43;59.65;102445.94;4841868;29;20033;-80
2023/05/02 10:36:35;;;;;;;19.55;4.68;;;;;;;12.36;60.64;102450.81;4840671;29;20030;-79
2023/05/02 10:39:01;;;;;;;11.55;3.60;;;;;;;12.27;61.04;102456.69;4842145;29;20174;-80
2023/05/02 10:41:30;;;;;;;14.80;4.15;;;;;;;12.22;61.71;102455.09;4841776;29;20054;-79
2023/05/02 10:43:57;;;;;;;12.80;3.37;;;;;;;12.23;60.68;102456.84;4840657;29;20530;-80
2023/05/02 10:46:40;;;;;;;12.43;3.88;;;;;;;12.35;62.94;102459.84;4840288;29;20390;-79
2023/05/02 10:49:10;;;;;;;14.75;3.83;;;;;;;12.36;61.00;102450.81;4841857;29;20077;-80
2023/05/02 10:51:37;;;;;;;15.80;4.32;;;;;;;12.42;61.67;102447.75;4841529;29;20034;-80
2023/05/02 10:54:15;;;;;;;18.77;4.53;;;;;;;12.48;61.86;102452.81;4841644;29;20034;-79
2023/05/02 10:56:59;;;;;;;18.02;4.20;;;;;;;12.61;63.33;102452.13;4841292;29;20041;-80
2023/05/02 10:59:29;;;;;;;12.65;4.00;;;;;;;12.57;60.15;102463.06;4840294;29;20090;-80
2023/05/02 11:01:55;;;;;;;16.63;4.28;;;;;;;12.48;58.55;102457.34;4841095;29;20054;-80
2023/05/02 11:04:21;;;;;;;11.98;3.25;;;;;;;12.39;58.03;102462.28;4841493;29;20041;-79
2023/05/02 11:06:55;;;;;;;16.48;4.07;;;;;;;12.44;62.49;102456.63;4841477;29;20094;-80
2023/05/02 11:09:20;;;;;;;15.23;4.13;;;;;;;12.43;58.15;102467.50;4841478;29;20402;-79
2023/05/02 11:11:48;;;;;;;10.98;3.42;;;;;;;12.44;54.79;102462.03;4841098;29;20042;-79
2023/05/02 11:14:32;;;;;;;18.88;4.43;;;;;;;12.61;57.99;102461.09;4839911;29;20053;-79
2023/05/02 11:17:00;;;;;;;13.50;3.88;;;;;;;12.80;57.62;102451.94;4841129;29;20157;-79